PWSweather.com
Personal Weather Stations
Station Observations
QQDC1
White Gables, Summerville, SC 29483

White GablesSummerville, SC 29483

Lat: 33.007587, Lon: -80.2251129

Elevation: 82

Station Type: Ambient WS-2080

High Low Average
Temperature 67.8°F19.9°C 64.0°F17.8°C 66.6°F19.2°C
Dew Point 50.9°F10.5°C 42.2°F5.7°C 46.9°F8.3°C
Winds 14.3 mph 23.0 kmh 5.0 mph 8.0 kmh 10.0 mph NE16.1 kmh NE
Wind Gusts 23.5 mph37.8 kmh 6.9 mph11.1 kmh 14.0 mph22.5 kmh
Humidity 59% 40% 50%
Pressure 30.06 in1017.9 mb 29.99 in1015.6 mb -
Precipitation 0.00 in0.0 mm - -
Hour Temp Dew Point Humidity Winds Wind Gusts Pressure Precip Precip Rate Daily Precip Total
12:00 AM 67.6°F19.8°C 49.9°F9.9°C 53% 5.0 mph NE8.0 kmh NE 6.9 mph11.1 kmh 30.06 in1017.9 mb 0.00 in0.0 mm 0.00 in/hr0.0 mm/hr 0.00 in0.0 mm
12:12 AM 67.6°F19.8°C 49.9°F9.9°C 53% 6.4 mph NE10.3 kmh NE 9.8 mph15.8 kmh 30.06 in1017.9 mb 0.00 in0.0 mm 0.00 in/hr0.0 mm/hr 0.00 in0.0 mm
12:24 AM 67.8°F19.9°C 50.1°F10.1°C 53% 6.4 mph NE10.3 kmh NE 9.8 mph15.8 kmh 30.05 in1017.6 mb 0.00 in0.0 mm 0.00 in/hr0.0 mm/hr 0.00 in0.0 mm
12:36 AM 67.8°F19.9°C 49.6°F9.8°C 52% 7.1 mph NNE11.4 kmh NNE 10.7 mph17.2 kmh 30.04 in1017.3 mb 0.00 in0.0 mm 0.00 in/hr0.0 mm/hr 0.00 in0.0 mm
12:48 AM 67.8°F19.9°C 50.1°F10.1°C 53% 6.3 mph NE10.1 kmh NE 8.3 mph13.4 kmh 30.03 in1016.9 mb 0.00 in0.0 mm 0.00 in/hr0.0 mm/hr 0.00 in0.0 mm
01:00 AM 67.6°F19.8°C 50.4°F10.2°C 54% 8.6 mph NE13.8 kmh NE 14.5 mph23.3 kmh 30.03 in1016.9 mb 0.00 in0.0 mm 0.00 in/hr0.0 mm/hr 0.00 in0.0 mm
01:12 AM 67.5°F19.7°C 50.8°F10.4°C 55% 8.3 mph NNE13.4 kmh NNE 12.1 mph19.5 kmh 30.03 in1016.9 mb 0.00 in0.0 mm 0.00 in/hr0.0 mm/hr 0.00 in0.0 mm
01:24 AM 67.1°F19.5°C 50.9°F10.5°C 56% 7.4 mph NNE11.9 kmh NNE 13.6 mph21.9 kmh 30.02 in1016.6 mb 0.00 in0.0 mm 0.00 in/hr0.0 mm/hr 0.00 in0.0 mm
01:36 AM 66.9°F19.4°C 50.2°F10.1°C 55% 9.2 mph NE14.8 kmh NE 13.6 mph21.9 kmh 30.02 in1016.6 mb 0.00 in0.0 mm 0.00 in/hr0.0 mm/hr 0.00 in0.0 mm
01:48 AM 66.9°F19.4°C 48.7°F9.3°C 52% 10.1 mph NE16.3 kmh NE 13.6 mph21.9 kmh 30.02 in1016.6 mb 0.00 in0.0 mm 0.00 in/hr0.0 mm/hr 0.00 in0.0 mm
02:00 AM 67.1°F19.5°C 46.2°F7.9°C 47% 12.3 mph NE19.8 kmh NE 15.9 mph25.6 kmh 30.02 in1016.6 mb 0.00 in0.0 mm 0.00 in/hr0.0 mm/hr 0.00 in0.0 mm
02:12 AM 67.3°F19.6°C 44.6°F7.0°C 44% 10.4 mph NNE16.7 kmh NNE 15.2 mph24.5 kmh 30.02 in1016.6 mb 0.00 in0.0 mm 0.00 in/hr0.0 mm/hr 0.00 in0.0 mm
02:24 AM 67.3°F19.6°C 43.4°F6.3°C 42% 10.3 mph NE16.6 kmh NE 13.0 mph20.9 kmh 30.01 in1016.3 mb 0.00 in0.0 mm 0.00 in/hr0.0 mm/hr 0.00 in0.0 mm
02:36 AM 67.3°F19.6°C 42.8°F6.0°C 41% 10.0 mph NE16.1 kmh NE 13.6 mph21.9 kmh 30.01 in1016.3 mb 0.00 in0.0 mm 0.00 in/hr0.0 mm/hr 0.00 in0.0 mm
02:48 AM 67.3°F19.6°C 42.2°F5.7°C 40% 10.0 mph NE16.1 kmh NE 13.0 mph20.9 kmh 30.01 in1016.3 mb 0.00 in0.0 mm 0.00 in/hr0.0 mm/hr 0.00 in0.0 mm
03:00 AM 67.1°F19.5°C 42.6°F5.9°C 41% 9.3 mph NE15.0 kmh NE 14.5 mph23.3 kmh 30.00 in1015.9 mb 0.00 in0.0 mm 0.00 in/hr0.0 mm/hr 0.00 in0.0 mm
03:12 AM 66.9°F19.4°C 42.5°F5.8°C 41% 10.1 mph NE16.3 kmh NE 14.5 mph23.3 kmh 30.01 in1016.3 mb 0.00 in0.0 mm 0.00 in/hr0.0 mm/hr 0.00 in0.0 mm
03:24 AM 66.6°F19.2°C 42.8°F6.0°C 42% 7.7 mph N12.4 kmh N 11.4 mph18.3 kmh 30.01 in1016.3 mb 0.00 in0.0 mm 0.00 in/hr0.0 mm/hr 0.00 in0.0 mm
03:36 AM 66.4°F19.1°C 43.2°F6.2°C 43% 7.9 mph NNE12.7 kmh NNE 12.1 mph19.5 kmh 30.00 in1015.9 mb 0.00 in0.0 mm 0.00 in/hr0.0 mm/hr 0.00 in0.0 mm
03:48 AM 66.4°F19.1°C 43.2°F6.2°C 43% 8.6 mph NE13.8 kmh NE 15.9 mph25.6 kmh 30.00 in1015.9 mb 0.00 in0.0 mm 0.00 in/hr0.0 mm/hr 0.00 in0.0 mm
04:00 AM 66.4°F19.1°C 43.2°F6.2°C 43% 10.6 mph NNE17.1 kmh NNE 15.2 mph24.5 kmh 30.00 in1015.9 mb 0.00 in0.0 mm 0.00 in/hr0.0 mm/hr 0.00 in0.0 mm
04:12 AM 66.6°F19.2°C 43.4°F6.3°C 43% 10.5 mph NE16.9 kmh NE 15.2 mph24.5 kmh 29.99 in1015.6 mb 0.00 in0.0 mm 0.00 in/hr0.0 mm/hr 0.00 in0.0 mm
04:24 AM 66.7°F19.3°C 44.2°F6.8°C 44% 9.3 mph NNE15.0 kmh NNE 13.0 mph20.9 kmh 29.99 in1015.6 mb 0.00 in0.0 mm 0.00 in/hr0.0 mm/hr 0.00 in0.0 mm
04:36 AM 66.9°F19.4°C 43.7°F6.5°C 43% 12.3 mph NE19.8 kmh NE 15.9 mph25.6 kmh 30.00 in1015.9 mb 0.00 in0.0 mm 0.00 in/hr0.0 mm/hr 0.00 in0.0 mm
04:48 AM 66.9°F19.4°C 44.3°F6.8°C 44% 11.1 mph NE17.9 kmh NE 16.8 mph27.0 kmh 30.00 in1015.9 mb 0.00 in0.0 mm 0.00 in/hr0.0 mm/hr 0.00 in0.0 mm
05:00 AM 66.9°F19.4°C 43.7°F6.5°C 43% 14.3 mph NE23.0 kmh NE 19.7 mph31.7 kmh 30.00 in1015.9 mb 0.00 in0.0 mm 0.00 in/hr0.0 mm/hr 0.00 in0.0 mm
05:12 AM 66.9°F19.4°C 43.7°F6.5°C 43% 13.1 mph NE21.1 kmh NE 18.3 mph29.5 kmh 29.99 in1015.6 mb 0.00 in0.0 mm 0.00 in/hr0.0 mm/hr 0.00 in0.0 mm
05:24 AM 66.7°F19.3°C 44.7°F7.1°C 45% 14.2 mph NNE22.9 kmh NNE 23.5 mph37.8 kmh 30.00 in1015.9 mb 0.00 in0.0 mm 0.00 in/hr0.0 mm/hr 0.00 in0.0 mm
05:36 AM 66.4°F19.1°C 46.1°F7.8°C 48% 12.0 mph NNE19.3 kmh NNE 17.4 mph28.0 kmh 30.00 in1015.9 mb 0.00 in0.0 mm 0.00 in/hr0.0 mm/hr 0.00 in0.0 mm
05:48 AM 65.3°F18.5°C 48.7°F9.3°C 55% 10.3 mph NE16.6 kmh NE 12.1 mph19.5 kmh 30.00 in1015.9 mb 0.00 in0.0 mm 0.00 in/hr0.0 mm/hr 0.00 in0.0 mm
06:00 AM 64.0°F17.8°C 49.4°F9.7°C 59% 8.3 mph NE13.4 kmh NE 10.7 mph17.2 kmh 30.00 in1015.9 mb 0.00 in0.0 mm 0.00 in/hr0.0 mm/hr 0.00 in0.0 mm
06:12 AM 64.4°F18.0°C 49.8°F9.9°C 59% 8.0 mph NNE12.9 kmh NNE 10.7 mph17.2 kmh 30.01 in1016.3 mb 0.00 in0.0 mm 0.00 in/hr0.0 mm/hr 0.00 in0.0 mm
06:24 AM 64.8°F18.2°C 50.1°F10.1°C 59% 9.6 mph NNE15.4 kmh NNE 12.1 mph19.5 kmh 30.02 in1016.6 mb 0.00 in0.0 mm 0.00 in/hr0.0 mm/hr 0.00 in0.0 mm
06:36 AM 64.9°F18.3°C 50.3°F10.2°C 59% 10.3 mph NE16.6 kmh NE 15.2 mph24.5 kmh 30.02 in1016.6 mb 0.00 in0.0 mm 0.00 in/hr0.0 mm/hr 0.00 in0.0 mm
06:48 AM 65.3°F18.5°C 50.2°F10.1°C 58% 10.2 mph N16.4 kmh N 14.5 mph23.3 kmh 30.02 in1016.6 mb 0.00 in0.0 mm 0.00 in/hr0.0 mm/hr 0.00 in0.0 mm
07:00 AM 65.5°F18.6°C 50.3°F10.2°C 58% 10.0 mph NNE16.1 kmh NNE 12.1 mph19.5 kmh 30.02 in1016.6 mb 0.00 in0.0 mm 0.00 in/hr0.0 mm/hr 0.00 in0.0 mm
07:12 AM 65.5°F18.6°C 49.9°F9.9°C 57% 10.3 mph NNE16.6 kmh NNE 13.6 mph21.9 kmh 30.02 in1016.6 mb 0.00 in0.0 mm 0.00 in/hr0.0 mm/hr 0.00 in0.0 mm
07:24 AM 66.0°F18.9°C 50.4°F10.2°C 57% 10.0 mph N16.1 kmh N 14.5 mph23.3 kmh 30.02 in1016.6 mb 0.00 in0.0 mm 0.00 in/hr0.0 mm/hr 0.00 in0.0 mm
07:36 AM 66.9°F19.4°C 50.2°F10.1°C 55% 11.5 mph NE18.5 kmh NE 15.2 mph24.5 kmh 30.03 in1016.9 mb 0.00 in0.0 mm 0.00 in/hr0.0 mm/hr 0.00 in0.0 mm
07:05 PM 77.4°F25.2°C 62.9°F17.2°C 61% 7.6 mph NE12.2 kmh NE 7.6 mph12.2 kmh 29.98 in1015.2 mb 0.00 in0.0 mm 0.00 in/hr0.0 mm/hr 0.00 in0.0 mm
07:10 PM 67.3°F19.6°C 50.1°F10.1°C 54% 11.1 mph NE17.9 kmh NE 11.4 mph18.3 kmh 30.02 in1016.6 mb 0.00 in0.0 mm 0.00 in/hr0.0 mm/hr 0.00 in0.0 mm
07:11 PM 73.4°F23.0°C 50.2°F10.1°C 44% 12.1 mph NE19.5 kmh NE 12.1 mph19.5 kmh 30.03 in1016.9 mb 0.00 in0.0 mm 0.00 in/hr0.0 mm/hr 0.00 in0.0 mm
07:12 PM 79.2°F26.2°C 58.9°F14.9°C 50% 14.5 mph NE23.3 kmh NE 14.5 mph23.3 kmh 29.98 in1015.2 mb 0.00 in0.0 mm 0.00 in/hr0.0 mm/hr 0.00 in0.0 mm
07:24 PM 76.6°F24.8°C 63.1°F17.3°C 63% 6.1 mph E9.8 kmh E 8.3 mph13.4 kmh 29.99 in1015.6 mb 0.00 in0.0 mm 0.00 in/hr0.0 mm/hr 0.00 in0.0 mm
07:36 PM 75.7°F24.3°C 63.2°F17.3°C 65% 4.7 mph NE7.6 kmh NE 6.9 mph11.1 kmh 30.00 in1015.9 mb 0.00 in0.0 mm 0.00 in/hr0.0 mm/hr 0.00 in0.0 mm
07:48 PM 75.2°F24.0°C 63.1°F17.3°C 66% 4.2 mph NE6.8 kmh NE 6.0 mph9.7 kmh 29.99 in1015.6 mb 0.00 in0.0 mm 0.00 in/hr0.0 mm/hr 0.00 in0.0 mm
08:00 PM 74.5°F23.6°C 62.8°F17.1°C 67% 1.7 mph E2.7 kmh E 3.1 mph5.0 kmh 30.00 in1015.9 mb 0.00 in0.0 mm 0.00 in/hr0.0 mm/hr 0.00 in0.0 mm
08:12 PM 73.8°F23.2°C 63.0°F17.2°C 69% 1.9 mph E3.1 kmh E 3.1 mph5.0 kmh 29.99 in1015.6 mb 0.00 in0.0 mm 0.00 in/hr0.0 mm/hr 0.00 in0.0 mm
08:24 PM 73.2°F22.9°C 62.5°F16.9°C 69% 1.9 mph E3.1 kmh E 3.8 mph6.1 kmh 30.00 in1015.9 mb 0.00 in0.0 mm 0.00 in/hr0.0 mm/hr 0.00 in0.0 mm
08:36 PM 72.7°F22.6°C 62.8°F17.1°C 71% 2.1 mph SE3.4 kmh SE 4.5 mph7.2 kmh 30.00 in1015.9 mb 0.00 in0.0 mm 0.00 in/hr0.0 mm/hr 0.00 in0.0 mm
08:48 PM 72.3°F22.4°C 63.2°F17.3°C 73% 2.7 mph NE4.3 kmh NE 4.5 mph7.2 kmh 30.00 in1015.9 mb 0.00 in0.0 mm 0.00 in/hr0.0 mm/hr 0.00 in0.0 mm
09:00 PM 71.8°F22.1°C 62.7°F17.1°C 73% 1.4 mph NE2.3 kmh NE 2.2 mph3.5 kmh 30.00 in1015.9 mb 0.00 in0.0 mm 0.00 in/hr0.0 mm/hr 0.00 in0.0 mm
09:12 PM 71.4°F21.9°C 63.1°F17.3°C 75% 1.7 mph E2.7 kmh E 3.8 mph6.1 kmh 30.01 in1016.3 mb 0.00 in0.0 mm 0.00 in/hr0.0 mm/hr 0.00 in0.0 mm
09:24 PM 71.1°F21.7°C 64.2°F17.9°C 79% 4.8 mph NE7.7 kmh NE 6.0 mph9.7 kmh 30.01 in1016.3 mb 0.00 in0.0 mm 0.00 in/hr0.0 mm/hr 0.00 in0.0 mm
09:36 PM 70.9°F21.6°C 64.1°F17.8°C 79% 5.4 mph NE8.7 kmh NE 7.6 mph12.2 kmh 30.01 in1016.3 mb 0.00 in0.0 mm 0.00 in/hr0.0 mm/hr 0.00 in0.0 mm
09:48 PM 70.7°F21.5°C 63.9°F17.7°C 79% 4.3 mph NE6.9 kmh NE 6.0 mph9.7 kmh 30.01 in1016.3 mb 0.00 in0.0 mm 0.00 in/hr0.0 mm/hr 0.00 in0.0 mm
10:00 PM 70.3°F21.3°C 63.9°F17.7°C 80% 4.7 mph NE7.6 kmh NE 6.9 mph11.1 kmh 30.01 in1016.3 mb 0.00 in0.0 mm 0.00 in/hr0.0 mm/hr 0.00 in0.0 mm
10:12 PM 70.2°F21.2°C 63.7°F17.6°C 80% 3.6 mph NE5.8 kmh NE 5.4 mph8.7 kmh 30.01 in1016.3 mb 0.00 in0.0 mm 0.00 in/hr0.0 mm/hr 0.00 in0.0 mm
10:24 PM 69.8°F21.0°C 63.7°F17.6°C 81% 3.6 mph NE5.8 kmh NE 7.6 mph12.2 kmh 30.01 in1016.3 mb 0.00 in0.0 mm 0.00 in/hr0.0 mm/hr 0.00 in0.0 mm
10:36 PM 69.4°F20.8°C 63.7°F17.6°C 82% 2.9 mph NE4.7 kmh NE 3.8 mph6.1 kmh 30.00 in1015.9 mb 0.00 in0.0 mm 0.00 in/hr0.0 mm/hr 0.00 in0.0 mm
10:48 PM 69.3°F20.7°C 63.9°F17.7°C 83% 4.0 mph NE6.4 kmh NE 6.0 mph9.7 kmh 30.00 in1015.9 mb 0.00 in0.0 mm 0.00 in/hr0.0 mm/hr 0.00 in0.0 mm
11:00 PM 69.1°F20.6°C 64.1°F17.8°C 84% 5.2 mph NE8.4 kmh NE 6.0 mph9.7 kmh 30.00 in1015.9 mb 0.00 in0.0 mm 0.00 in/hr0.0 mm/hr 0.00 in0.0 mm
11:12 PM 68.9°F20.5°C 63.9°F17.7°C 84% 4.6 mph NE7.4 kmh NE 6.0 mph9.7 kmh 29.99 in1015.6 mb 0.00 in0.0 mm 0.00 in/hr0.0 mm/hr 0.00 in0.0 mm
11:24 PM 68.9°F20.5°C 64.2°F17.9°C 85% 4.9 mph NE7.9 kmh NE 6.9 mph11.1 kmh 30.00 in1015.9 mb 0.00 in0.0 mm 0.00 in/hr0.0 mm/hr 0.00 in0.0 mm
11:36 PM 68.7°F20.4°C 64.1°F17.8°C 85% 4.2 mph ENE6.8 kmh ENE 6.9 mph11.1 kmh 29.99 in1015.6 mb 0.00 in0.0 mm 0.00 in/hr0.0 mm/hr 0.00 in0.0 mm
11:48 PM 68.5°F20.3°C 64.2°F17.9°C 86% 3.5 mph ENE5.6 kmh ENE 4.5 mph7.2 kmh 29.99 in1015.6 mb 0.00 in0.0 mm 0.00 in/hr0.0 mm/hr 0.00 in0.0 mm